Time;durP1;ratioP1;P1;durP2;ratioP2;P2;SDS_P1;SDS_P2;PMS_P1;PMS_P2;Temp;Humidity;BMP_temperature;BMP_pressure;BME280_temperature;BME280_humidity;BME280_pressure;Samples;Min_cycle;Max_cycle;Signal;HPM_P1;HPM_P2
2020/12/18 00:01:13;;;;;;;13.60;7.18;;;6.70;99.90;;;;;;4977265;28;20198;-71
2020/12/18 00:03:40;;;;;;;13.70;8.80;;;6.60;99.90;;;;;;4974672;28;20183;-72
2020/12/18 00:06:08;;;;;;;9.85;6.10;;;6.60;99.90;;;;;;4957283;28;20589;-73
2020/12/18 00:08:35;;;;;;;9.40;7.35;;;6.60;99.90;;;;;;4959539;28;20199;-72
2020/12/18 00:11:02;;;;;;;9.15;6.47;;;6.50;99.90;;;;;;4978252;28;20254;-72
2020/12/18 00:13:29;;;;;;;12.65;9.43;;;6.50;99.90;;;;;;4978289;28;20661;-72
2020/12/18 00:15:57;;;;;;;7.43;5.95;;;6.60;99.90;;;;;;4978189;28;20198;-71
2020/12/18 00:18:24;;;;;;;10.75;6.63;;;6.60;99.90;;;;;;4978625;28;20206;-73
2020/12/18 00:20:55;;;;;;;19.23;7.57;;;6.50;99.90;;;;;;4979452;28;20171;-72
2020/12/18 00:23:23;;;;;;;11.57;7.70;;;6.60;99.90;;;;;;4985402;28;20180;-71
2020/12/18 00:25:52;;;;;;;13.93;7.90;;;6.60;99.90;;;;;;4970950;28;20215;-72
2020/12/18 00:28:19;;;;;;;10.68;6.35;;;6.50;99.90;;;;;;4984580;28;20247;-71
2020/12/18 00:30:47;;;;;;;11.02;7.25;;;6.40;99.90;;;;;;4984041;28;20179;-72
2020/12/18 00:33:14;;;;;;;8.30;6.43;;;6.30;99.90;;;;;;4982346;28;20176;-72
2020/12/18 00:35:42;;;;;;;9.82;7.47;;;6.30;99.90;;;;;;4965609;28;20251;-72
2020/12/18 00:38:09;;;;;;;10.65;6.20;;;6.30;99.90;;;;;;4965585;28;20267;-72
2020/12/18 00:40:37;;;;;;;13.15;8.63;;;6.20;99.90;;;;;;4983440;28;20184;-72
2020/12/18 00:43:04;;;;;;;4.88;4.20;;;6.20;99.90;;;;;;4966206;28;20192;-71
2020/12/18 00:45:32;;;;;;;12.02;8.00;;;6.30;99.90;;;;;;4983479;28;20231;-72
2020/12/18 00:47:59;;;;;;;9.38;6.63;;;6.30;99.90;;;;;;4982943;28;20183;-71
2020/12/18 00:50:27;;;;;;;9.60;7.20;;;6.40;99.90;;;;;;4982161;28;20718;-72
2020/12/18 00:52:54;;;;;;;10.52;6.80;;;6.40;99.90;;;;;;4965606;28;20207;-71
2020/12/18 00:55:21;;;;;;;10.07;7.10;;;6.40;99.90;;;;;;4981439;28;20242;-73
2020/12/18 00:57:49;;;;;;;10.98;5.03;;;6.40;99.90;;;;;;4964837;28;20187;-70
2020/12/18 01:00:17;;;;;;;7.32;4.90;;;6.40;99.90;;;;;;4990969;23;20289;-78
2020/12/18 01:03:16;;;;;;;9.07;7.47;;;6.50;99.90;;;;;;4990390;28;20563;-79
2020/12/18 01:05:44;;;;;;;12.27;7.97;;;6.60;99.90;;;;;;4998197;28;20290;-78
2020/12/18 01:08:17;;;;;;;16.02;7.15;;;6.40;99.90;;;;;;4982099;28;20187;-79
2020/12/18 01:10:45;;;;;;;8.98;6.97;;;6.20;99.90;;;;;;4980534;28;20262;-79
2020/12/18 01:13:13;;;;;;;15.02;7.80;;;6.40;99.90;;;;;;4984455;28;20190;-79
2020/12/18 01:15:41;;;;;;;10.75;9.23;;;6.30;99.90;;;;;;4984595;28;20286;-79
2020/12/18 01:18:22;;;;;;;11.38;8.40;;;6.30;99.90;;;;;;4983727;28;20567;-79
2020/12/18 01:20:49;;;;;;;11.13;8.57;;;6.40;99.90;;;;;;4984558;28;20218;-79
2020/12/18 01:23:16;;;;;;;13.60;8.93;;;6.80;99.90;;;;;;4986489;28;20199;-79
2020/12/18 01:25:49;;;;;;;8.73;6.85;;;6.30;99.90;;;;;;4983043;28;20198;-79
2020/12/18 01:28:17;;;;;;;13.23;8.40;;;6.30;99.90;;;;;;4981885;28;20202;-79
2020/12/18 01:30:45;;;;;;;13.23;10.70;;;6.30;99.90;;;;;;4982458;28;20225;-78
2020/12/18 01:33:12;;;;;;;11.05;7.32;;;6.20;99.90;;;;;;4982793;28;20198;-78
2020/12/18 01:35:40;;;;;;;9.70;7.18;;;6.10;99.90;;;;;;4999564;28;20209;-79
2020/12/18 01:38:08;;;;;;;11.75;7.47;;;6.00;99.90;;;;;;4982348;28;20253;-79
2020/12/18 01:40:39;;;;;;;13.93;8.18;;;6.00;99.90;;;;;;4986563;28;20202;-79
2020/12/18 01:43:10;;;;;;;10.45;8.00;;;6.00;99.90;;;;;;4986434;28;20195;-80
2020/12/18 01:45:41;;;;;;;8.98;7.00;;;5.90;99.90;;;;;;4986025;28;20266;-78
2020/12/18 01:48:11;;;;;;;11.20;8.27;;;5.90;99.90;;;;;;4982570;28;20721;-80
2020/12/18 01:51:06;;;;;;;12.00;8.43;;;5.80;99.90;;;;;;4994743;28;20828;-79
2020/12/18 01:53:33;;;;;;;10.98;7.68;;;5.80;99.90;;;;;;4980655;28;20221;-78
2020/12/18 01:56:22;;;;;;;16.95;8.73;;;5.80;99.90;;;;;;4998716;28;20209;-79
2020/12/18 01:58:57;;;;;;;8.75;6.75;;;5.90;99.90;;;;;;4998280;28;20254;-78
2020/12/18 02:01:45;;;;;;;8.32;6.60;;;5.90;99.90;;;;;;4999497;28;20258;-78
2020/12/18 02:04:29;;;;;;;8.65;5.47;;;6.00;99.90;;;;;;4981016;28;20183;-78
2020/12/18 02:06:58;;;;;;;12.85;7.10;;;6.10;99.90;;;;;;4980472;28;20202;-78
2020/12/18 02:09:35;;;;;;;7.53;6.13;;;6.10;99.90;;;;;;4980637;28;20214;-79
2020/12/18 02:12:05;;;;;;;8.25;7.13;;;6.10;99.90;;;;;;4998364;28;20206;-78
2020/12/18 02:14:36;;;;;;;9.73;6.88;;;6.10;99.90;;;;;;4998408;28;20263;-78
2020/12/18 02:17:04;;;;;;;13.30;8.25;;;6.10;99.90;;;;;;4980023;28;20194;-79
2020/12/18 02:19:42;;;;;;;10.73;6.68;;;6.10;99.90;;;;;;4980726;28;20309;-79
2020/12/18 02:22:14;;;;;;;10.80;6.57;;;6.00;99.90;;;;;;4979907;28;20621;-78
2020/12/18 02:25:00;;;;;;;8.73;6.70;;;5.90;99.90;;;;;;4979697;28;20223;-79
2020/12/18 02:27:29;;;;;;;13.07;5.72;;;5.80;99.90;;;;;;4983030;28;20190;-78
2020/12/18 02:29:59;;;;;;;10.70;8.85;;;5.70;99.90;;;;;;4982133;28;20278;-79
2020/12/18 02:32:27;;;;;;;13.20;7.65;;;5.60;99.90;;;;;;4982431;28;20234;-79
2020/12/18 02:35:01;;;;;;;10.05;8.18;;;5.60;99.90;;;;;;4981967;28;20201;-79
2020/12/18 02:37:35;;;;;;;7.28;4.93;;;5.60;99.90;;;;;;4983185;28;20194;-79
2020/12/18 02:40:05;;;;;;;9.48;5.95;;;5.70;99.90;;;;;;4983647;28;20214;-79
2020/12/18 02:42:56;;;;;;;6.88;6.03;;;5.80;99.90;;;;;;4999619;28;20238;-78
2020/12/18 02:45:26;;;;;;;9.20;7.18;;;5.80;99.90;;;;;;4982138;28;20198;-79
2020/12/18 02:48:10;;;;;;;13.50;8.43;;;5.90;99.90;;;;;;4979244;28;20202;-80
2020/12/18 02:50:46;;;;;;;9.85;7.78;;;5.90;99.90;;;;;;4982269;28;20217;-80
2020/12/18 02:53:15;;;;;;;10.90;7.43;;;5.80;99.90;;;;;;5000427;28;20297;-80
2020/12/18 02:56:04;;;;;;;11.40;7.60;;;5.80;99.90;;;;;;5003435;28;20234;-79
2020/12/18 02:58:42;;;;;;;10.55;7.10;;;5.70;99.90;;;;;;4988484;28;20238;-79
2020/12/18 03:01:09;;;;;;;9.88;8.05;;;5.60;99.90;;;;;;4984410;28;20195;-80
2020/12/18 03:03:37;;;;;;;10.77;6.18;;;5.60;99.90;;;;;;4982436;28;20285;-79
2020/12/18 03:06:26;;;;;;;12.15;6.47;;;5.60;99.90;;;;;;4982968;28;20199;-79
2020/12/18 03:08:54;;;;;;;7.93;6.20;;;5.50;99.90;;;;;;4982070;28;20239;-78
2020/12/18 03:11:21;;;;;;;8.82;6.75;;;5.40;99.90;;;;;;4981682;28;20317;-78
2020/12/18 03:13:52;;;;;;;7.68;6.28;;;5.40;99.90;;;;;;4981361;28;20281;-78
2020/12/18 03:16:24;;;;;;;12.75;7.22;;;5.40;99.90;;;;;;4982836;28;20673;-79
2020/12/18 03:19:10;;;;;;;7.55;6.60;;;5.50;99.90;;;;;;4984113;28;20226;-78
2020/12/18 03:21:37;;;;;;;9.15;6.32;;;5.60;99.90;;;;;;4986486;28;20199;-79
2020/12/18 03:24:23;;;;;;;10.65;8.02;;;5.60;99.90;;;;;;4988015;28;20191;-79
2020/12/18 03:27:11;;;;;;;8.77;6.90;;;5.60;99.90;;;;;;4985370;28;20202;-79
2020/12/18 03:29:47;;;;;;;8.60;6.43;;;5.60;99.90;;;;;;4985594;28;20237;-78
2020/12/18 03:32:17;;;;;;;9.57;6.55;;;5.50;99.90;;;;;;4985283;28;20237;-78
2020/12/18 03:34:55;;;;;;;12.25;7.95;;;5.50;99.90;;;;;;4983533;28;20195;-78
2020/12/18 03:37:26;;;;;;;6.18;5.45;;;5.50;99.90;;;;;;4985116;28;20205;-78
2020/12/18 03:39:54;;;;;;;9.38;5.63;;;5.40;99.90;;;;;;4988607;28;20237;-78
2020/12/18 03:42:28;;;;;;;6.85;5.82;;;5.30;99.90;;;;;;4981013;28;20189;-78
2020/12/18 03:44:57;;;;;;;7.82;6.43;;;5.30;99.90;;;;;;4997190;28;20199;-79
2020/12/18 03:47:44;;;;;;;6.70;5.60;;;5.30;99.90;;;;;;4999567;28;20199;-79
2020/12/18 03:50:24;;;;;;;11.27;6.85;;;5.20;99.90;;;;;;4983619;28;20218;-79
2020/12/18 03:53:07;;;;;;;9.65;6.15;;;5.10;99.90;;;;;;5000820;28;20623;-79
2020/12/18 03:55:38;;;;;;;8.98;7.10;;;5.10;99.90;;;;;;4984306;28;20225;-79
2020/12/18 03:58:25;;;;;;;9.18;6.75;;;5.10;99.90;;;;;;4989585;28;20195;-79
2020/12/18 04:01:24;;;;;;;13.73;7.47;;;5.00;99.90;;;;;;4930098;28;20205;-79
2020/12/18 04:03:51;;;;;;;13.43;6.85;;;4.90;99.90;;;;;;4981910;28;20281;-79
2020/12/18 04:06:20;;;;;;;14.00;7.68;;;5.00;99.90;;;;;;4983597;28;20203;-78
2020/12/18 04:08:47;;;;;;;9.82;7.40;;;4.90;99.90;;;;;;4981993;28;20211;-78
2020/12/18 04:11:19;;;;;;;9.90;9.07;;;5.00;99.90;;;;;;4980320;28;20194;-78
2020/12/18 04:13:53;;;;;;;13.77;7.80;;;5.00;99.90;;;;;;4978559;28;20194;-77
2020/12/18 04:16:26;;;;;;;9.57;7.70;;;5.00;99.90;;;;;;4980006;28;20191;-78
2020/12/18 04:18:53;;;;;;;11.95;8.52;;;5.00;99.90;;;;;;4978887;28;20218;-78
2020/12/18 04:21:24;;;;;;;10.07;7.80;;;5.10;99.90;;;;;;4978374;28;20688;-78
2020/12/18 04:24:06;;;;;;;9.90;7.53;;;5.20;99.90;;;;;;4979290;28;20661;-78
2020/12/18 04:26:36;;;;;;;12.90;7.55;;;5.20;99.90;;;;;;4981153;28;20722;-80
2020/12/18 04:29:05;;;;;;;10.60;7.38;;;5.20;99.90;;;;;;4981372;28;20215;-78
2020/12/18 04:31:35;;;;;;;12.52;8.98;;;5.30;99.90;;;;;;4978640;28;20221;-77
2020/12/18 04:34:02;;;;;;;16.23;8.93;;;5.30;99.90;;;;;;4977527;28;20193;-78
2020/12/18 04:36:47;;;;;;;9.98;6.65;;;5.40;99.90;;;;;;4982224;28;20202;-79
2020/12/18 04:39:21;;;;;;;11.05;8.70;;;5.50;99.90;;;;;;4978022;28;20245;-78
2020/12/18 04:41:49;;;;;;;9.85;6.55;;;5.60;99.90;;;;;;4978295;28;20191;-78
2020/12/18 04:44:18;;;;;;;17.67;8.85;;;5.60;99.90;;;;;;4980819;28;20203;-78
2020/12/18 04:46:56;;;;;;;9.80;5.57;;;5.60;99.90;;;;;;4984600;28;20205;-79
2020/12/18 04:49:28;;;;;;;16.33;8.90;;;5.60;99.90;;;;;;4989078;28;20210;-78
2020/12/18 04:52:10;;;;;;;12.25;8.30;;;5.50;99.90;;;;;;4998383;28;20233;-78
2020/12/18 04:54:51;;;;;;;11.32;7.40;;;5.50;99.90;;;;;;5002461;28;20182;-78
2020/12/18 04:57:45;;;;;;;10.23;8.13;;;5.40;99.90;;;;;;5018905;28;20183;-78
2020/12/18 05:00:17;;;;;;;13.43;8.23;;;5.50;99.90;;;;;;5001849;28;20241;-78
2020/12/18 05:03:23;;;;;;;9.55;6.53;;;5.40;99.90;;;;;;5016803;28;20189;-78
2020/12/18 05:05:52;;;;;;;13.18;7.53;;;5.40;99.90;;;;;;4986422;28;20194;-78
2020/12/18 05:08:19;;;;;;;13.10;9.85;;;5.40;99.90;;;;;;4982995;28;20605;-78
2020/12/18 05:10:46;;;;;;;12.68;8.40;;;5.40;99.90;;;;;;4985122;28;20205;-78
2020/12/18 05:13:26;;;;;;;13.50;7.97;;;5.60;99.90;;;;;;4983540;28;20273;-78
2020/12/18 05:16:01;;;;;;;15.43;12.63;;;5.60;99.90;;;;;;4984276;28;20225;-78
2020/12/18 05:18:44;;;;;;;12.30;7.00;;;5.50;99.90;;;;;;5002204;28;20225;-78
2020/12/18 05:21:38;;;;;;;11.23;8.10;;;5.50;99.90;;;;;;5000155;28;20209;-78
2020/12/18 05:24:08;;;;;;;10.40;7.32;;;5.40;99.90;;;;;;4983169;28;20194;-79
2020/12/18 05:26:41;;;;;;;14.88;7.85;;;5.40;99.90;;;;;;4983320;28;20257;-79
2020/12/18 05:29:10;;;;;;;10.30;7.22;;;5.40;99.90;;;;;;4983280;28;20230;-79
2020/12/18 05:31:57;;;;;;;11.02;7.40;;;5.40;99.90;;;;;;5000284;28;20214;-78
2020/12/18 05:34:33;;;;;;;9.15;7.60;;;5.40;99.90;;;;;;5000192;28;20183;-78
2020/12/18 05:37:34;;;;;;;10.07;6.85;;;5.50;99.90;;;;;;4998179;28;20202;-79
2020/12/18 05:40:07;;;;;;;11.95;7.22;;;5.50;99.90;;;;;;4983866;28;20215;-79
2020/12/18 05:42:48;;;;;;;10.23;7.75;;;5.60;99.90;;;;;;4984662;28;20191;-79
2020/12/18 05:45:27;;;;;;;15.18;9.15;;;5.70;99.90;;;;;;5000982;28;20174;-79
2020/12/18 05:48:08;;;;;;;11.73;8.90;;;5.70;99.90;;;;;;4982039;28;20199;-79
2020/12/18 05:50:50;;;;;;;18.77;9.07;;;5.70;99.90;;;;;;4982065;28;20213;-79
2020/12/18 05:53:19;;;;;;;15.60;9.20;;;5.70;99.90;;;;;;4981203;28;20709;-77
2020/12/18 05:56:28;;;;;;;11.18;7.20;;;5.70;99.90;;;;;;4980221;28;20688;-78
2020/12/18 05:58:57;;;;;;;14.00;7.25;;;5.60;99.90;;;;;;4966014;28;20266;-77
2020/12/18 06:01:40;;;;;;;12.07;9.45;;;5.70;99.90;;;;;;4962405;28;20813;-79
2020/12/18 06:04:33;;;;;;;12.48;8.77;;;5.70;99.90;;;;;;4961089;28;20297;-77
2020/12/18 06:07:08;;;;;;;11.90;8.43;;;5.70;99.90;;;;;;4965365;28;20196;-77
2020/12/18 06:09:58;;;;;;;13.75;9.85;;;5.70;99.90;;;;;;4978493;28;20222;-79
2020/12/18 06:12:39;;;;;;;10.73;7.60;;;5.70;99.90;;;;;;4959106;28;20211;-80
2020/12/18 06:15:07;;;;;;;17.30;9.38;;;5.70;99.90;;;;;;4958874;28;20206;-78
2020/12/18 06:17:36;;;;;;;12.50;7.93;;;5.70;99.90;;;;;;4960110;28;20195;-79
2020/12/18 06:20:04;;;;;;;13.07;7.80;;;5.70;99.90;;;;;;4961760;28;20249;-78
2020/12/18 06:22:56;;;;;;;8.73;5.97;;;5.70;99.90;;;;;;4963557;28;20211;-77
2020/12/18 06:25:47;;;;;;;13.27;9.52;;;5.70;99.90;;;;;;4966055;28;20291;-79
2020/12/18 06:28:30;;;;;;;15.27;8.88;;;5.70;99.90;;;;;;4968017;28;20323;-79
2020/12/18 06:31:23;;;;;;;14.93;7.97;;;5.70;99.90;;;;;;4965096;28;20205;-79
2020/12/18 06:34:21;;;;;;;12.15;9.82;;;5.70;99.90;;;;;;4979756;28;20218;-79
2020/12/18 06:37:28;;;;;;;9.05;6.68;;;5.70;99.90;;;;;;4966003;28;20197;-77
2020/12/18 06:40:27;;;;;;;7.93;7.13;;;5.70;99.90;;;;;;4960622;28;20231;-78
2020/12/18 06:43:34;;;;;;;8.15;5.65;;;5.60;99.90;;;;;;4964695;28;20191;-78
2020/12/18 06:46:24;;;;;;;9.93;5.82;;;5.40;99.90;;;;;;4974503;28;20203;-78
2020/12/18 06:49:10;;;;;;;9.73;8.65;;;5.30;99.90;;;;;;4976391;28;20728;-78
2020/12/18 06:51:56;;;;;;;12.52;6.32;;;5.20;99.90;;;;;;4975608;28;20585;-78
2020/12/18 06:54:34;;;;;;;14.07;9.82;;;5.10;99.90;;;;;;4958670;28;20335;-78
2020/12/18 06:57:20;;;;;;;10.55;8.90;;;5.10;99.90;;;;;;4958052;28;20199;-78
2020/12/18 06:59:50;;;;;;;15.15;7.05;;;5.00;99.90;;;;;;4984980;28;20724;-78
2020/12/18 07:02:34;;;;;;;13.27;6.65;;;5.00;99.90;;;;;;4997862;28;20685;-79
2020/12/18 07:05:02;;;;;;;18.25;9.05;;;4.90;99.90;;;;;;4998420;28;20183;-79
2020/12/18 07:07:31;;;;;;;12.90;8.20;;;4.90;99.90;;;;;;4998955;28;20238;-79
2020/12/18 07:09:58;;;;;;;12.90;7.68;;;4.80;99.90;;;;;;4998818;28;20222;-78
2020/12/18 07:12:27;;;;;;;17.30;7.75;;;4.80;99.90;;;;;;4998348;28;20233;-80
2020/12/18 07:14:56;;;;;;;21.05;7.88;;;4.80;99.90;;;;;;4999066;28;20170;-79
2020/12/18 07:17:27;;;;;;;10.73;8.25;;;4.70;99.90;;;;;;4998276;28;20194;-78
2020/12/18 07:19:56;;;;;;;11.40;7.18;;;4.70;99.90;;;;;;4998293;28;20219;-79
2020/12/18 07:22:23;;;;;;;19.58;9.18;;;4.70;99.90;;;;;;4998185;28;20172;-78
2020/12/18 07:24:50;;;;;;;9.93;7.22;;;4.70;99.90;;;;;;5000529;28;20215;-80
2020/12/18 07:27:17;;;;;;;10.05;6.90;;;4.70;99.90;;;;;;5002387;28;20680;-78
2020/12/18 07:29:45;;;;;;;20.88;7.45;;;4.60;99.90;;;;;;4998909;28;20214;-80
2020/12/18 07:32:12;;;;;;;9.60;6.38;;;4.60;99.90;;;;;;4998551;28;20226;-80
2020/12/18 07:34:39;;;;;;;13.63;6.68;;;4.70;99.90;;;;;;4998657;28;20243;-79
2020/12/18 07:37:13;;;;;;;17.83;6.82;;;4.70;99.90;;;;;;4999021;28;20187;-79
2020/12/18 07:39:41;;;;;;;9.18;7.72;;;4.60;99.90;;;;;;4999856;28;20209;-80
2020/12/18 07:42:09;;;;;;;13.43;8.18;;;4.60;99.90;;;;;;5000415;28;20235;-80
2020/12/18 07:44:37;;;;;;;14.32;6.75;;;4.70;99.90;;;;;;4983699;28;20183;-80
2020/12/18 07:47:06;;;;;;;12.35;6.78;;;4.70;99.90;;;;;;5000038;28;20229;-78
2020/12/18 07:49:34;;;;;;;18.55;10.38;;;4.60;99.90;;;;;;5000768;28;20214;-79
2020/12/18 07:52:07;;;;;;;11.20;9.57;;;4.60;99.90;;;;;;5000319;28;20199;-79
2020/12/18 07:54:34;;;;;;;11.95;7.03;;;4.70;99.90;;;;;;4999883;28;20206;-78
2020/12/18 07:57:08;;;;;;;17.50;7.45;;;4.70;99.90;;;;;;4999139;28;20205;-81
2020/12/18 07:59:35;;;;;;;12.57;8.23;;;4.80;99.90;;;;;;4999042;28;20312;-82
2020/12/18 08:02:03;;;;;;;18.50;9.27;;;4.90;99.90;;;;;;4999622;28;20797;-81
2020/12/18 08:07:20;;;;;;;11.63;7.07;;;5.00;99.90;;;;;;4989198;28;20210;-80
2020/12/18 08:09:57;;;;;;;12.00;7.45;;;5.00;99.90;;;;;;4984418;28;20250;-79
2020/12/18 08:12:24;;;;;;;10.45;7.25;;;5.10;99.90;;;;;;4999927;28;20217;-80
2020/12/18 08:14:51;;;;;;;11.35;8.10;;;5.10;99.90;;;;;;4999832;28;20234;-80
2020/12/18 08:17:24;;;;;;;13.10;9.43;;;5.20;99.90;;;;;;4997532;28;20183;-80
2020/12/18 08:19:52;;;;;;;16.52;8.73;;;5.40;99.90;;;;;;4997238;28;20210;-80
2020/12/18 08:22:21;;;;;;;13.52;8.18;;;5.50;99.90;;;;;;4979633;28;20183;-80
2020/12/18 08:24:55;;;;;;;10.80;7.30;;;5.50;99.90;;;;;;4997485;28;20439;-80
2020/12/18 08:27:24;;;;;;;11.80;8.32;;;5.70;99.90;;;;;;4994608;28;20665;-79
2020/12/18 08:29:53;;;;;;;10.82;7.95;;;5.80;99.90;;;;;;5000323;28;20273;-78
2020/12/18 08:32:28;;;;;;;17.20;8.52;;;5.80;99.90;;;;;;5006159;28;20213;-79
2020/12/18 08:35:01;;;;;;;15.38;5.95;;;6.00;99.90;;;;;;4989424;28;20217;-80
2020/12/18 08:37:28;;;;;;;15.07;9.98;;;6.00;99.90;;;;;;5002344;28;20175;-80
2020/12/18 08:39:56;;;;;;;15.75;8.98;;;6.10;99.90;;;;;;5000725;28;20546;-80
2020/12/18 08:42:23;;;;;;;9.85;8.48;;;6.20;99.90;;;;;;5000731;28;20242;-77
2020/12/18 08:44:50;;;;;;;15.45;8.05;;;6.20;99.90;;;;;;4983405;28;20297;-79
2020/12/18 08:47:22;;;;;;;10.70;8.32;;;6.10;99.90;;;;;;5000613;28;20250;-78
2020/12/18 08:49:50;;;;;;;17.58;8.10;;;6.10;99.90;;;;;;4999622;28;20210;-80
2020/12/18 08:52:23;;;;;;;16.52;9.55;;;6.10;99.90;;;;;;4999066;28;20230;-79
2020/12/18 08:55:00;;;;;;;13.82;10.18;;;6.00;99.90;;;;;;4982866;28;20194;-80
2020/12/18 08:57:29;;;;;;;15.93;9.18;;;6.00;99.90;;;;;;5000440;28;20174;-80
2020/12/18 08:59:58;;;;;;;17.00;8.70;;;5.90;99.90;;;;;;5000207;28;20697;-80
2020/12/18 09:02:26;;;;;;;16.63;9.05;;;6.00;99.90;;;;;;5000775;28;20179;-79
2020/12/18 09:05:16;;;;;;;14.93;10.00;;;6.00;99.90;;;;;;5000309;28;20179;-78
2020/12/18 09:07:50;;;;;;;12.13;8.77;;;6.00;99.90;;;;;;5001065;28;20202;-78
2020/12/18 09:10:35;;;;;;;17.85;10.68;;;6.00;99.90;;;;;;4970606;23;20246;-47
2020/12/18 09:13:09;;;;;;;15.00;10.15;;;6.10;99.90;;;;;;4955936;29;20222;-53
2020/12/18 09:15:37;;;;;;;13.82;8.20;;;6.20;99.90;;;;;;4955380;29;20230;-45
2020/12/18 09:18:05;;;;;;;9.52;6.80;;;6.20;99.90;;;;;;4957026;28;20251;-48
2020/12/18 09:20:34;;;;;;;9.25;7.38;;;6.20;99.90;;;;;;4975275;28;20668;-46
2020/12/18 09:23:04;;;;;;;9.30;8.40;;;6.20;99.90;;;;;;4975110;28;20618;-45
2020/12/18 09:25:36;;;;;;;9.82;8.85;;;6.30;99.90;;;;;;4974860;28;20660;-49
2020/12/18 09:28:03;;;;;;;12.20;7.07;;;6.30;99.90;;;;;;4975081;28;20206;-47
2020/12/18 09:30:31;;;;;;;12.90;8.43;;;6.20;99.90;;;;;;4960212;28;20204;-48
2020/12/18 09:33:25;;;;;;;8.85;7.63;;;6.30;99.90;;;;;;4956061;29;20212;-48
2020/12/18 09:35:54;;;;;;;15.05;9.35;;;6.40;99.90;;;;;;4954764;29;20224;-52
2020/12/18 09:38:24;;;;;;;11.20;6.57;;;6.40;99.90;;;;;;4955650;29;20192;-48
2020/12/18 09:40:51;;;;;;;10.65;7.53;;;6.40;99.90;;;;;;4955711;28;20192;-48
2020/12/18 09:43:19;;;;;;;7.05;6.00;;;6.50;99.90;;;;;;4955573;28;20180;-47
2020/12/18 09:45:47;;;;;;;11.25;7.55;;;6.50;99.90;;;;;;4956041;29;20219;-50
2020/12/18 09:48:14;;;;;;;10.00;8.50;;;6.60;99.90;;;;;;4955936;29;20192;-46
2020/12/18 09:50:41;;;;;;;12.32;6.88;;;6.70;99.90;;;;;;4956067;29;20515;-48
2020/12/18 09:53:09;;;;;;;9.48;6.55;;;6.70;99.90;;;;;;4955570;29;20231;-53
2020/12/18 09:55:37;;;;;;;10.32;8.18;;;6.80;99.90;;;;;;4955530;29;20581;-47
2020/12/18 09:58:04;;;;;;;10.10;7.45;;;6.80;99.90;;;;;;4955916;29;20191;-45
2020/12/18 10:00:32;;;;;;;16.23;8.88;;;6.90;99.90;;;;;;4955374;29;20176;-47
2020/12/18 10:02:59;;;;;;;13.98;10.75;;;7.00;99.90;;;;;;4955473;29;20196;-47
2020/12/18 10:05:27;;;;;;;16.25;9.40;;;7.10;99.90;;;;;;4955378;29;20224;-51
2020/12/18 10:07:54;;;;;;;13.40;7.65;;;7.10;99.90;;;;;;4955404;29;20539;-50
2020/12/18 10:10:22;;;;;;;11.00;7.65;;;7.10;99.90;;;;;;4955020;29;20204;-49
2020/12/18 10:12:49;;;;;;;12.50;7.22;;;7.20;99.90;;;;;;4955546;29;20218;-50
2020/12/18 10:15:17;;;;;;;13.98;7.05;;;7.10;99.90;;;;;;4954580;29;20314;-47
2020/12/18 10:17:44;;;;;;;11.57;7.97;;;7.00;99.90;;;;;;4955129;29;20597;-47
2020/12/18 10:20:11;;;;;;;14.00;8.35;;;6.90;99.90;;;;;;4955004;28;20235;-50
2020/12/18 10:22:38;;;;;;;13.30;7.38;;;6.90;99.90;;;;;;4955396;29;20669;-46
2020/12/18 10:25:06;;;;;;;9.65;5.93;;;7.00;99.90;;;;;;4955159;29;20192;-47
2020/12/18 10:27:33;;;;;;;18.92;6.97;;;7.20;99.90;;;;;;4955072;29;20664;-47
2020/12/18 10:30:01;;;;;;;13.02;8.63;;;7.30;99.90;;;;;;4955091;29;20189;-47
2020/12/18 10:32:29;;;;;;;18.40;6.00;;;7.50;99.90;;;;;;4954574;29;20203;-49
2020/12/18 10:34:56;;;;;;;12.88;8.40;;;7.70;99.90;;;;;;4954522;29;20235;-46
2020/12/18 10:37:24;;;;;;;12.50;7.95;;;7.80;99.90;;;;;;4954529;29;20238;-47
2020/12/18 10:39:51;;;;;;;11.32;6.80;;;7.90;99.90;;;;;;4953341;29;20448;-47
2020/12/18 10:42:18;;;;;;;12.43;6.93;;;7.90;99.90;;;;;;4953250;29;20219;-48
2020/12/18 10:44:46;;;;;;;11.98;9.07;;;7.90;99.90;;;;;;4953065;29;20326;-44
2020/12/18 10:47:14;;;;;;;18.38;7.43;;;7.90;99.90;;;;;;4953783;28;20734;-47
2020/12/18 10:49:42;;;;;;;10.77;7.47;;;7.90;99.90;;;;;;4951114;29;20534;-47
2020/12/18 10:52:09;;;;;;;12.55;8.07;;;7.90;99.90;;;;;;4952801;28;20192;-45
2020/12/18 10:54:36;;;;;;;18.42;8.18;;;7.90;99.90;;;;;;4952360;29;20231;-52
2020/12/18 10:57:08;;;;;;;11.93;7.32;;;7.90;99.90;;;;;;4953170;29;20271;-51
2020/12/18 10:59:35;;;;;;;7.57;5.85;;;7.90;99.90;;;;;;4953809;29;20247;-47
2020/12/18 11:02:03;;;;;;;10.23;8.15;;;7.90;99.90;;;;;;4954021;29;20200;-46
2020/12/18 11:04:31;;;;;;;7.10;5.70;;;7.90;99.90;;;;;;4953710;29;20254;-49
2020/12/18 11:06:58;;;;;;;15.75;8.63;;;8.00;99.90;;;;;;4953214;29;20239;-52
2020/12/18 11:09:25;;;;;;;11.80;7.30;;;8.00;99.90;;;;;;4953186;29;20719;-47
2020/12/18 11:11:57;;;;;;;9.13;5.70;;;8.00;99.90;;;;;;4952880;29;20192;-49
2020/12/18 11:14:24;;;;;;;13.02;6.47;;;8.10;99.90;;;;;;4953220;29;20220;-51
2020/12/18 11:16:54;;;;;;;14.55;8.63;;;8.10;99.90;;;;;;4953026;28;20212;-48
2020/12/18 11:19:21;;;;;;;13.02;7.05;;;8.20;99.90;;;;;;4952897;29;20662;-48
2020/12/18 11:21:49;;;;;;;7.53;6.30;;;8.20;99.90;;;;;;4952568;29;20196;-53
2020/12/18 11:24:17;;;;;;;12.85;7.28;;;8.20;99.90;;;;;;4953013;29;20196;-47
2020/12/18 11:26:50;;;;;;;9.30;6.40;;;8.20;99.90;;;;;;4953171;29;20279;-46
2020/12/18 11:29:17;;;;;;;6.28;5.22;;;8.30;99.90;;;;;;4953270;29;20196;-46
2020/12/18 11:31:46;;;;;;;14.45;7.25;;;8.30;99.90;;;;;;4953041;29;20188;-45
2020/12/18 11:34:18;;;;;;;9.57;6.15;;;8.40;99.90;;;;;;4953190;28;20196;-53
2020/12/18 11:36:45;;;;;;;7.22;6.38;;;8.50;99.90;;;;;;4955466;29;20212;-45
2020/12/18 11:39:13;;;;;;;10.10;6.05;;;8.40;99.90;;;;;;4955642;29;20188;-52
2020/12/18 11:41:40;;;;;;;8.93;6.20;;;8.40;99.90;;;;;;4955254;29;20670;-47
2020/12/18 11:44:07;;;;;;;10.80;5.80;;;8.50;99.90;;;;;;4955978;29;20721;-49
2020/12/18 11:46:34;;;;;;;15.05;7.57;;;8.60;99.90;;;;;;4955323;29;20709;-50
2020/12/18 11:49:02;;;;;;;10.82;6.20;;;8.60;99.90;;;;;;4955227;29;20177;-48
2020/12/18 11:51:30;;;;;;;13.82;8.25;;;8.60;99.90;;;;;;4954493;28;20187;-50
2020/12/18 11:53:58;;;;;;;10.15;8.00;;;8.60;99.90;;;;;;4954479;29;20215;-48
2020/12/18 11:56:26;;;;;;;9.82;6.20;;;8.60;99.90;;;;;;4954681;28;20204;-43
2020/12/18 11:58:53;;;;;;;9.10;6.70;;;8.60;99.90;;;;;;4954453;29;20688;-46
2020/12/18 12:01:23;;;;;;;9.18;7.28;;;8.70;99.90;;;;;;4954001;28;20208;-50
2020/12/18 12:03:51;;;;;;;10.07;5.20;;;8.70;99.90;;;;;;4957779;28;20240;-49
2020/12/18 12:06:19;;;;;;;8.40;7.22;;;8.80;99.90;;;;;;4958201;29;20252;-47
2020/12/18 12:08:46;;;;;;;10.25;6.97;;;8.90;99.90;;;;;;4958571;28;20199;-46
2020/12/18 12:11:15;;;;;;;9.63;4.65;;;8.90;99.90;;;;;;4958954;29;20330;-53
2020/12/18 12:13:44;;;;;;;5.38;4.50;;;8.90;99.90;;;;;;4958558;29;20259;-52
2020/12/18 12:16:13;;;;;;;7.93;5.60;;;8.90;99.90;;;;;;4958785;29;20208;-49
2020/12/18 12:18:41;;;;;;;9.68;6.60;;;8.90;99.90;;;;;;4959021;29;20572;-48
2020/12/18 12:21:08;;;;;;;12.50;7.18;;;8.90;99.90;;;;;;4957678;29;20196;-50
2020/12/18 12:23:36;;;;;;;7.50;6.20;;;8.80;99.90;;;;;;4957833;29;20612;-47
2020/12/18 12:26:03;;;;;;;6.53;4.82;;;8.80;99.90;;;;;;4958238;29;20235;-48
2020/12/18 12:28:30;;;;;;;11.40;6.38;;;8.90;99.90;;;;;;4957802;29;20196;-47
2020/12/18 12:30:59;;;;;;;9.73;6.32;;;9.00;99.90;;;;;;4957562;29;20192;-49
2020/12/18 12:33:26;;;;;;;7.15;5.22;;;9.00;99.90;;;;;;4957968;29;20234;-49
2020/12/18 12:35:53;;;;;;;8.25;5.30;;;9.00;99.90;;;;;;4957854;28;20250;-48
2020/12/18 12:38:20;;;;;;;10.07;5.50;;;9.00;99.90;;;;;;4956709;29;20207;-43
2020/12/18 12:40:51;;;;;;;8.85;5.25;;;9.00;99.90;;;;;;4957238;29;20210;-48
2020/12/18 12:43:18;;;;;;;6.05;4.70;;;9.00;99.90;;;;;;4957113;29;20200;-47
2020/12/18 12:45:46;;;;;;;6.18;5.35;;;9.10;99.90;;;;;;4957176;29;20263;-52
2020/12/18 12:48:14;;;;;;;9.65;5.20;;;9.00;99.90;;;;;;4953495;29;20192;-51
2020/12/18 12:50:48;;;;;;;6.00;4.80;;;9.10;99.90;;;;;;4957066;28;20208;-47
2020/12/18 12:53:15;;;;;;;7.40;5.90;;;9.00;99.90;;;;;;4957564;29;20208;-46
2020/12/18 12:55:42;;;;;;;6.18;5.57;;;9.00;99.90;;;;;;4957377;29;20224;-51
2020/12/18 12:58:13;;;;;;;7.70;4.80;;;9.00;99.90;;;;;;4957925;28;20239;-44
2020/12/18 13:00:41;;;;;;;5.68;4.40;;;9.00;99.90;;;;;;4994254;23;20231;-74
2020/12/18 13:03:37;;;;;;;8.38;6.10;;;9.10;99.90;;;;;;4977503;28;20183;-74
2020/12/18 13:06:06;;;;;;;6.43;5.38;;;9.10;99.90;;;;;;4978075;28;20184;-74
2020/12/18 13:08:34;;;;;;;5.53;4.95;;;9.30;99.90;;;;;;4978175;28;20203;-74
2020/12/18 13:11:03;;;;;;;5.72;4.25;;;9.10;99.90;;;;;;4977734;28;20278;-74
2020/12/18 13:13:31;;;;;;;8.82;4.70;;;9.00;99.90;;;;;;4977479;28;20210;-74
2020/12/18 13:15:59;;;;;;;8.85;4.88;;;9.10;99.90;;;;;;4975520;28;20260;-75
2020/12/18 13:18:30;;;;;;;5.10;4.13;;;9.10;99.90;;;;;;4977663;28;20447;-74
2020/12/18 13:20:59;;;;;;;7.72;5.00;;;9.10;99.90;;;;;;4977552;28;20191;-75